Your Location
IP:
Country:
City:
Region:
latitude:
Longitude:
Time Zone:
Enroute Flights
AAL1271
DAL2089
SKW5628
N3725L
N2680D
N761RQ
DAL1757
AWE621
ASA502
Weather
KSNA 231653Z 21006KT 10SM FEW300 26/16 A3000 RMK AO2 SLP156 T02560161 $